createdAt,value
2023-02-15T00:01:37.102Z,102675.28
2023-02-15T00:04:08.214Z,102665.59
2023-02-15T00:06:38.266Z,102656.69
2023-02-15T00:09:11.996Z,102663.94
2023-02-15T00:11:51.257Z,102660.22
2023-02-15T00:14:23.585Z,102653.16
2023-02-15T00:16:55.863Z,102659.00
2023-02-15T00:19:25.925Z,102654.94
2023-02-15T00:21:56.700Z,102656.41
2023-02-15T00:24:29.464Z,102649.25
2023-02-15T00:26:59.254Z,102648.91
2023-02-15T00:29:29.293Z,102653.88
2023-02-15T00:31:59.053Z,102657.28
2023-02-15T00:34:31.098Z,102656.06
2023-02-15T00:37:01.137Z,102652.19
2023-02-15T00:39:33.587Z,102653.22
2023-02-15T00:42:03.415Z,102652.88
2023-02-15T00:44:33.199Z,102653.31
2023-02-15T00:47:03.242Z,102648.16
2023-02-15T00:49:33.033Z,102650.25
2023-02-15T00:52:02.842Z,102647.66
2023-02-15T00:54:35.713Z,102641.31
2023-02-15T00:57:05.485Z,102641.53
2023-02-15T00:59:35.285Z,102643.63
2023-02-15T01:02:05.097Z,102641.97
2023-02-15T01:04:34.887Z,102638.69
2023-02-15T01:07:05.815Z,102644.53
2023-02-15T01:09:38.316Z,102647.44
2023-02-15T01:12:09.841Z,102651.13
2023-02-15T01:14:39.723Z,102641.44
2023-02-15T01:17:09.530Z,102641.69
2023-02-15T01:19:39.405Z,102648.91
2023-02-15T01:22:09.381Z,102640.25
2023-02-15T01:24:41.974Z,102638.00
2023-02-15T01:27:11.753Z,102644.44
2023-02-15T01:29:41.819Z,102636.81
2023-02-15T01:32:12.080Z,102632.50
2023-02-15T01:34:41.971Z,102632.28
2023-02-15T01:37:11.834Z,102624.81
2023-02-15T01:39:44.300Z,102628.53
2023-02-15T01:42:15.265Z,102621.31
2023-02-15T01:44:51.802Z,102626.09
2023-02-15T01:50:05.780Z,102629.44
2023-02-15T01:52:37.747Z,102630.25
2023-02-15T01:55:13.764Z,102623.25
2023-02-15T01:57:44.052Z,102622.41
2023-02-15T02:00:15.168Z,102624.28
2023-02-15T02:02:47.617Z,102615.84
2023-02-15T02:05:17.413Z,102618.97
2023-02-15T02:07:49.667Z,102610.53
2023-02-15T02:10:26.320Z,102601.91
2023-02-15T02:12:58.888Z,102598.63
2023-02-15T02:15:37.051Z,102595.34
2023-02-15T02:18:25.580Z,102602.19
2023-02-15T02:21:14.196Z,102601.19
2023-02-15T02:23:55.271Z,102585.56
2023-02-15T02:27:00.495Z,102583.97
2023-02-15T02:30:11.050Z,102581.72
2023-02-15T02:33:21.399Z,102584.84
2023-02-15T02:36:01.210Z,102580.53
2023-02-15T02:38:37.293Z,102575.16
2023-02-15T02:41:16.969Z,102563.81
2023-02-15T02:43:55.703Z,102575.59
2023-02-15T02:46:32.161Z,102565.09
2023-02-15T02:49:05.224Z,102567.19
2023-02-15T02:51:35.254Z,102561.00
2023-02-15T02:54:09.554Z,102560.38
2023-02-15T02:56:45.346Z,102544.72
2023-02-15T02:59:20.339Z,102551.13
2023-02-15T03:01:54.520Z,102555.28
2023-02-15T03:04:31.537Z,102542.34
2023-02-15T03:07:04.576Z,102539.66
2023-02-15T03:09:42.918Z,102540.69
2023-02-15T03:12:15.117Z,102538.44
2023-02-15T03:14:48.102Z,102533.53
2023-02-15T03:17:21.007Z,102533.75
2023-02-15T03:19:57.769Z,102528.22
2023-02-15T03:22:32.595Z,102534.84
2023-02-15T03:25:06.637Z,102538.34
2023-02-15T03:27:40.181Z,102530.06
2023-02-15T03:30:12.906Z,102536.03
2023-02-15T03:32:44.921Z,102532.94
2023-02-15T03:35:17.503Z,102542.63
2023-02-15T03:37:54.392Z,102538.88
2023-02-15T03:40:42.507Z,102535.97
2023-02-15T03:43:18.691Z,102537.03
2023-02-15T03:45:58.683Z,102529.78
2023-02-15T03:48:32.763Z,102530.25
2023-02-15T03:51:22.331Z,102532.31
2023-02-15T03:53:54.265Z,102532.75
2023-02-15T03:56:24.249Z,102534.00
2023-02-15T03:59:06.406Z,102531.19
2023-02-15T04:01:53.375Z,102531.59
2023-02-15T04:04:26.486Z,102528.53
2023-02-15T04:06:59.005Z,102524.66
2023-02-15T04:09:41.232Z,102524.06
2023-02-15T04:12:11.074Z,102522.84
2023-02-15T04:14:53.374Z,102524.31
2023-02-15T04:17:23.252Z,102524.75
2023-02-15T04:20:05.499Z,102523.09
2023-02-15T04:22:50.337Z,102526.84
2023-02-15T04:25:20.346Z,102527.06
2023-02-15T04:27:52.442Z,102527.06
2023-02-15T04:30:25.071Z,102533.47
2023-02-15T04:32:55.074Z,102518.59
2023-02-15T04:35:24.919Z,102523.97
2023-02-15T04:37:57.484Z,102522.34
2023-02-15T04:40:27.724Z,102521.50
2023-02-15T04:42:57.550Z,102527.69
2023-02-15T04:45:28.391Z,102519.06
2023-02-15T04:47:58.263Z,102512.06
2023-02-15T04:50:28.088Z,102510.41
2023-02-15T04:53:00.683Z,102505.47
2023-02-15T04:55:30.681Z,102507.56
2023-02-15T04:58:00.588Z,102511.28
2023-02-15T05:00:30.592Z,102510.88
2023-02-15T05:03:00.391Z,102509.25
2023-02-15T05:05:30.344Z,102506.78
2023-02-15T05:08:02.775Z,102502.69
2023-02-15T05:10:32.546Z,102505.78
2023-02-15T05:13:02.432Z,102496.94
2023-02-15T05:15:32.207Z,102502.28
2023-02-15T05:18:02.662Z,102499.38
2023-02-15T05:20:32.457Z,102496.53
2023-02-15T05:23:05.223Z,102492.78
2023-02-15T05:25:47.579Z,102496.06
2023-02-15T05:28:25.503Z,102487.00
2023-02-15T05:31:08.710Z,102488.63
2023-02-15T05:33:39.064Z,102488.63
2023-02-15T05:36:10.109Z,102481.22
2023-02-15T05:38:42.743Z,102475.84
2023-02-15T05:41:14.959Z,102475.22
2023-02-15T05:43:44.714Z,102478.13
2023-02-15T05:46:16.062Z,102478.34
2023-02-15T05:48:45.892Z,102469.91
2023-02-15T05:51:17.139Z,102469.31
2023-02-15T05:53:49.715Z,102473.28
2023-02-15T05:56:19.540Z,102476.34
2023-02-15T05:58:49.530Z,102478.22
2023-02-15T06:01:22.982Z,102470.41
2023-02-15T06:03:53.084Z,102479.72
2023-02-15T06:06:23.234Z,102480.94
2023-02-15T06:08:55.655Z,102486.28
2023-02-15T06:11:25.465Z,102476.03
2023-02-15T06:13:55.311Z,102478.09
2023-02-15T06:16:25.181Z,102482.84
2023-02-15T06:18:55.044Z,102476.88
2023-02-15T06:21:25.144Z,102479.78
2023-02-15T06:23:57.782Z,102483.69
2023-02-15T06:26:27.641Z,102482.06
2023-02-15T06:28:57.608Z,102482.28
2023-02-15T06:31:27.513Z,102483.53
2023-02-15T06:34:02.085Z,102478.59
2023-02-15T06:36:32.925Z,102480.69
2023-02-15T06:39:06.206Z,102497.19
2023-02-15T06:41:36.049Z,102488.75
2023-02-15T06:44:05.912Z,102505.03
2023-02-15T06:46:35.960Z,102497.22
2023-02-15T06:49:05.984Z,102496.41
2023-02-15T06:51:35.847Z,102503.38
2023-02-15T06:54:08.684Z,102514.09
2023-02-15T06:56:38.516Z,102506.06
2023-02-15T06:59:08.570Z,102508.28
2023-02-15T07:01:40.966Z,102498.03
2023-02-15T07:04:10.891Z,102490.81
2023-02-15T07:06:40.808Z,102499.66
2023-02-15T07:09:13.894Z,102496.41
2023-02-15T07:11:56.088Z,102500.06
2023-02-15T07:14:28.160Z,102489.34
2023-02-15T07:16:59.016Z,102494.06
2023-02-15T07:19:29.096Z,102488.91
2023-02-15T07:21:58.844Z,102483.09
2023-02-15T07:24:31.642Z,102473.59
2023-02-15T07:27:01.587Z,102471.53
2023-02-15T07:29:31.568Z,102467.41
2023-02-15T07:32:01.479Z,102468.19
2023-02-15T07:34:31.512Z,102461.94
2023-02-15T07:37:01.575Z,102460.69
2023-02-15T07:39:34.505Z,102459.19
2023-02-15T07:42:04.615Z,102456.94
2023-02-15T07:44:34.916Z,102451.13
2023-02-15T07:47:04.952Z,102454.19
2023-02-15T07:49:34.813Z,102453.53
2023-02-15T07:52:04.903Z,102443.16
2023-02-15T07:54:37.369Z,102445.50
2023-02-15T07:57:07.490Z,102433.16
2023-02-15T07:59:37.312Z,102427.97
2023-02-15T08:02:09.385Z,102438.59
2023-02-15T08:04:40.387Z,102432.44
2023-02-15T08:07:10.398Z,102431.94
2023-02-15T08:09:42.830Z,102422.31
2023-02-15T08:12:12.705Z,102422.47
2023-02-15T08:14:42.474Z,102419.34
2023-02-15T08:17:12.319Z,102413.38
2023-02-15T08:19:42.158Z,102422.38
2023-02-15T08:22:16.959Z,102413.28
2023-02-15T08:24:50.605Z,102410.00
2023-02-15T08:27:27.754Z,102413.75
2023-02-15T08:29:57.644Z,102410.44
2023-02-15T08:32:27.605Z,102414.81
2023-02-15T08:34:57.498Z,102409.88
2023-02-15T08:37:27.275Z,102410.94
2023-02-15T08:39:59.762Z,102405.56
2023-02-15T08:42:29.637Z,102400.19
2023-02-15T08:44:59.538Z,102396.44
2023-02-15T08:47:29.480Z,102400.75
2023-02-15T08:49:59.374Z,102394.81
2023-02-15T08:52:29.133Z,102389.44
2023-02-15T08:55:01.704Z,102398.53
2023-02-15T08:57:31.930Z,102394.94
2023-02-15T09:00:01.923Z,102390.59
2023-02-15T09:02:31.843Z,102384.25
2023-02-15T09:05:01.938Z,102392.34
2023-02-15T09:07:32.188Z,102380.66
2023-02-15T09:10:04.779Z,102375.38
2023-02-15T09:12:34.762Z,102380.06
2023-02-15T09:15:04.671Z,102387.16
2023-02-15T09:17:34.479Z,102384.38
2023-02-15T09:20:04.302Z,102378.63
2023-02-15T09:22:34.447Z,102379.41
2023-02-15T09:25:07.496Z,102372.84
2023-02-15T09:27:37.611Z,102378.59
2023-02-15T09:30:08.309Z,102378.31
2023-02-15T09:32:38.534Z,102389.25
2023-02-15T09:35:11.825Z,102386.69
2023-02-15T09:37:41.681Z,102384.41
2023-02-15T09:40:16.937Z,102380.00
2023-02-15T09:43:18.346Z,102379.75
2023-02-15T09:46:13.511Z,102380.09
2023-02-15T09:48:46.573Z,102373.84
2023-02-15T09:51:31.199Z,102375.06
2023-02-15T09:54:17.009Z,102369.34
2023-02-15T09:56:54.322Z,102371.44
2023-02-15T09:59:39.301Z,102372.91
2023-02-15T10:02:28.317Z,102365.53
2023-02-15T10:05:12.723Z,102370.56
2023-02-15T10:08:08.196Z,102373.66
2023-02-15T10:10:47.841Z,102377.69
2023-02-15T10:13:35.731Z,102384.88
2023-02-15T10:16:22.614Z,102374.56
2023-02-15T10:19:07.558Z,102374.97
2023-02-15T10:21:55.453Z,102367.25
2023-02-15T10:24:54.863Z,102371.91
2023-02-15T10:27:25.961Z,102366.66
2023-02-15T10:30:10.302Z,102362.72
2023-02-15T10:32:51.651Z,102364.13
2023-02-15T10:35:28.343Z,102366.69
2023-02-15T10:38:14.351Z,102365.63
2023-02-15T10:40:57.717Z,102365.44
2023-02-15T10:43:48.486Z,102350.09
2023-02-15T10:46:39.764Z,102349.06
2023-02-15T10:49:47.042Z,102346.44
2023-02-15T10:52:33.825Z,102348.09
2023-02-15T10:55:18.690Z,102347.59
2023-02-15T10:57:55.578Z,102344.41
2023-02-15T11:00:33.059Z,102338.47
2023-02-15T11:03:21.334Z,102331.97
2023-02-15T11:06:02.387Z,102337.44
2023-02-15T11:08:38.184Z,102337.72
2023-02-15T11:11:13.122Z,102332.03
2023-02-15T11:13:47.589Z,102332.06
2023-02-15T11:16:24.596Z,102342.91
2023-02-15T11:19:01.255Z,102336.16
2023-02-15T11:21:38.340Z,102336.16
2023-02-15T11:24:15.336Z,102328.28
2023-02-15T11:26:48.108Z,102335.88
2023-02-15T11:29:26.784Z,102338.59
2023-02-15T11:32:00.628Z,102332.38
2023-02-15T11:34:38.345Z,102336.72
2023-02-15T11:37:13.442Z,102332.09
2023-02-15T11:39:45.393Z,102330.47
2023-02-15T11:42:20.222Z,102321.25
2023-02-15T11:44:59.598Z,102321.53
2023-02-15T11:47:29.352Z,102313.63
2023-02-15T11:50:02.166Z,102311.97
2023-02-15T11:52:32.295Z,102307.88
2023-02-15T11:55:02.516Z,102304.34
2023-02-15T11:57:41.853Z,102300.53
2023-02-15T12:00:18.829Z,102295.38
2023-02-15T12:02:54.614Z,102294.00
2023-02-15T12:05:29.300Z,102295.34
2023-02-15T12:08:06.758Z,102285.25
2023-02-15T12:10:42.002Z,102271.13
2023-02-15T12:13:14.202Z,102272.75
2023-02-15T12:15:47.697Z,102263.53
2023-02-15T12:18:24.551Z,102255.34
2023-02-15T12:21:03.929Z,102259.94
2023-02-15T12:23:35.857Z,102249.31
2023-02-15T12:26:06.678Z,102256.34
2023-02-15T12:28:41.017Z,102253.03
2023-02-15T12:31:23.263Z,102251.38
2023-02-15T12:33:57.963Z,102245.34
2023-02-15T12:36:34.427Z,102250.47
2023-02-15T12:39:20.933Z,102240.09
2023-02-15T12:42:03.194Z,102249.53
2023-02-15T12:44:35.397Z,102233.72
2023-02-15T12:47:08.412Z,102234.25
2023-02-15T12:49:39.310Z,102246.75
2023-02-15T12:52:28.836Z,102235.91
2023-02-15T12:54:58.665Z,102228.25
2023-02-15T12:57:31.695Z,102223.84
2023-02-15T13:00:04.213Z,102225.44
2023-02-15T13:02:40.411Z,102218.38
2023-02-15T13:05:24.966Z,102221.59
2023-02-15T13:08:01.640Z,102227.53
2023-02-15T13:10:34.789Z,102217.41
2023-02-15T13:13:05.132Z,102219.53
2023-02-15T13:15:39.728Z,102210.06
2023-02-15T13:18:16.739Z,102205.13
2023-02-15T13:20:48.029Z,102205.09
2023-02-15T13:23:30.293Z,102191.47
2023-02-15T13:26:03.611Z,102183.78
2023-02-15T13:28:42.041Z,102188.44
2023-02-15T13:31:17.462Z,102184.31
2023-02-15T13:33:51.696Z,102185.34
2023-02-15T13:36:27.962Z,102181.53
2023-02-15T13:39:12.925Z,102179.63
2023-02-15T13:41:57.078Z,102174.44
2023-02-15T13:44:41.024Z,102168.69
2023-02-15T13:47:22.900Z,102158.56
2023-02-15T13:50:06.626Z,102162.31
2023-02-15T13:52:42.776Z,102160.03
2023-02-15T13:55:43.094Z,102165.47
2023-02-15T13:58:36.537Z,102155.41
2023-02-15T14:01:14.669Z,102165.94
2023-02-15T14:04:02.266Z,102157.19
2023-02-15T14:06:52.644Z,102156.91
2023-02-15T14:09:40.940Z,102150.03
2023-02-15T14:12:29.267Z,102144.03
2023-02-15T14:15:26.346Z,102152.72
2023-02-15T14:18:08.310Z,102144.47
2023-02-15T14:20:51.244Z,102157.56
2023-02-15T14:23:35.148Z,102152.91
2023-02-15T14:26:11.034Z,102158.31
2023-02-15T14:28:50.883Z,102154.16
2023-02-15T14:31:28.308Z,102154.91
2023-02-15T14:34:00.581Z,102148.09
2023-02-15T14:36:33.456Z,102145.56
2023-02-15T14:39:32.726Z,102143.66
2023-02-15T14:42:08.669Z,102140.38
2023-02-15T14:44:47.608Z,102132.69
2023-02-15T14:47:23.496Z,102136.97
2023-02-15T14:49:53.601Z,102135.56
2023-02-15T14:52:23.537Z,102132.31
2023-02-15T14:55:06.547Z,102131.81
2023-02-15T14:57:38.011Z,102125.25
2023-02-15T15:00:43.052Z,102125.34
2023-02-15T15:03:26.089Z,102120.19
2023-02-15T15:06:01.004Z,102122.81
2023-02-15T15:08:37.468Z,102119.00
2023-02-15T15:11:43.396Z,102123.41
2023-02-15T15:14:34.922Z,102120.63
2023-02-15T15:17:06.103Z,102123.34
2023-02-15T15:20:14.720Z,102122.81
2023-02-15T15:22:48.517Z,102118.41
2023-02-15T15:25:46.889Z,102120.63
2023-02-15T15:28:46.559Z,102115.97
2023-02-15T15:31:23.907Z,102112.66
2023-02-15T15:34:33.281Z,102126.06
2023-02-15T15:37:39.382Z,102131.53
2023-02-15T15:40:44.430Z,102129.91
2023-02-15T15:43:37.353Z,102121.19
2023-02-15T15:46:32.693Z,102120.38
2023-02-15T15:49:05.557Z,102124.47
2023-02-15T15:51:37.851Z,102117.38
2023-02-15T15:54:07.853Z,102122.00
2023-02-15T15:56:44.066Z,102123.41
2023-02-15T15:59:21.109Z,102131.09
2023-02-15T16:01:51.752Z,102138.72
2023-02-15T16:04:32.933Z,102142.91
2023-02-15T16:07:18.239Z,102131.88
2023-02-15T16:09:58.399Z,102135.19
2023-02-15T16:12:34.149Z,102130.31
2023-02-15T16:15:17.793Z,102131.75
2023-02-15T16:17:51.535Z,102136.94
2023-02-15T16:20:25.484Z,102131.59
2023-02-15T16:23:23.446Z,102130.59
2023-02-15T16:26:03.611Z,102119.19
2023-02-15T16:28:36.415Z,102124.13
2023-02-15T16:31:15.224Z,102119.84
2023-02-15T16:33:47.101Z,102124.25
2023-02-15T16:36:25.144Z,102122.19
2023-02-15T16:39:24.574Z,102132.38
2023-02-15T16:42:03.007Z,102127.25
2023-02-15T16:44:36.152Z,102121.84
2023-02-15T16:47:06.471Z,102124.31
2023-02-15T16:49:38.092Z,102137.72
2023-02-15T16:52:10.984Z,102138.28
2023-02-15T16:54:41.004Z,102141.06
2023-02-15T16:57:21.985Z,102137.31
2023-02-15T16:59:57.284Z,102133.03
2023-02-15T17:02:49.730Z,102141.25
2023-02-15T17:05:22.319Z,102133.72
2023-02-15T17:08:08.849Z,102133.25
2023-02-15T17:10:42.844Z,102132.47
2023-02-15T17:13:14.746Z,102136.31
2023-02-15T17:16:08.432Z,102144.25
2023-02-15T17:18:47.394Z,102139.66
2023-02-15T17:21:21.034Z,102146.47
2023-02-15T17:23:53.282Z,102145.41
2023-02-15T17:26:27.701Z,102152.25
2023-02-15T17:29:00.504Z,102159.63
2023-02-15T17:31:35.919Z,102147.69
2023-02-15T17:34:06.273Z,102155.31
2023-02-15T17:36:36.077Z,102155.63
2023-02-15T17:39:12.241Z,102152.69
2023-02-15T17:41:42.213Z,102161.44
2023-02-15T17:44:15.068Z,102156.63
2023-02-15T17:46:47.686Z,102156.63
2023-02-15T17:49:27.882Z,102167.22
2023-02-15T17:51:57.842Z,102170.50
2023-02-15T17:54:39.990Z,102162.94
2023-02-15T17:57:15.368Z,102160.47
2023-02-15T17:59:57.914Z,102162.69
2023-02-15T18:02:48.873Z,102167.56
2023-02-15T18:05:31.716Z,102167.88
2023-02-15T18:08:14.066Z,102161.06
2023-02-15T18:10:56.279Z,102162.72
2023-02-15T18:13:26.178Z,102166.00
2023-02-15T18:15:56.666Z,102163.84
2023-02-15T18:18:29.220Z,102167.38
2023-02-15T18:20:59.105Z,102171.47
2023-02-15T18:23:29.120Z,102164.16
2023-02-15T18:25:58.915Z,102172.88
2023-02-15T18:28:28.688Z,102169.34
2023-02-15T18:30:58.878Z,102163.63
2023-02-15T18:33:37.939Z,102166.66
2023-02-15T18:36:11.118Z,102168.81
2023-02-15T18:38:40.952Z,102169.38
2023-02-15T18:41:10.864Z,102162.56
2023-02-15T18:43:40.688Z,102163.13
2023-02-15T18:46:10.544Z,102164.50
2023-02-15T18:48:42.993Z,102168.03
2023-02-15T18:51:20.883Z,102167.78
2023-02-15T18:53:53.082Z,102164.53
2023-02-15T18:56:25.392Z,102166.69
2023-02-15T18:58:55.220Z,102161.56
2023-02-15T19:01:25.080Z,102164.00
2023-02-15T19:03:57.549Z,102159.13
2023-02-15T19:06:27.373Z,102165.09
2023-02-15T19:08:57.261Z,102171.06
2023-02-15T19:11:28.632Z,102166.19
2023-02-15T19:13:59.367Z,102173.25
2023-02-15T19:16:32.062Z,102185.72
2023-02-15T19:19:07.190Z,102184.09
2023-02-15T19:21:37.486Z,102185.19
2023-02-15T19:24:15.259Z,102173.78
2023-02-15T19:26:46.465Z,102181.94
2023-02-15T19:29:20.872Z,102183.25
2023-02-15T19:31:50.826Z,102185.97
2023-02-15T19:34:23.694Z,102193.56
2023-02-15T19:36:56.730Z,102187.88
2023-02-15T19:39:30.180Z,102184.38
2023-02-15T19:42:00.106Z,102184.06
2023-02-15T19:44:29.870Z,102175.97
2023-02-15T19:46:59.733Z,102185.72
2023-02-15T19:49:32.233Z,102183.78
2023-02-15T19:52:03.039Z,102193.56
2023-02-15T19:54:36.091Z,102200.34
2023-02-15T19:57:05.991Z,102185.16
2023-02-15T19:59:36.722Z,102183.81
2023-02-15T20:02:07.322Z,102187.31
2023-02-15T20:04:40.603Z,102189.47
2023-02-15T20:07:19.066Z,102177.53
2023-02-15T20:09:49.210Z,102188.91
2023-02-15T20:12:24.600Z,102193.22
2023-02-15T20:14:54.827Z,102197.56
2023-02-15T20:17:24.983Z,102197.25
2023-02-15T20:19:57.362Z,102197.81
2023-02-15T20:22:29.759Z,102202.94
2023-02-15T20:24:59.804Z,102208.59
2023-02-15T20:27:29.680Z,102212.09
2023-02-15T20:29:59.550Z,102206.13
2023-02-15T20:32:29.461Z,102208.81
2023-02-15T20:35:03.978Z,102214.25
2023-02-15T20:37:34.309Z,102218.03
2023-02-15T20:40:04.193Z,102221.28
2023-02-15T20:42:33.974Z,102211.00
2023-02-15T20:45:04.092Z,102216.09
2023-02-15T20:47:33.856Z,102221.25
2023-02-15T20:50:06.820Z,102224.50
2023-02-15T20:52:36.558Z,102222.28
2023-02-15T20:55:06.581Z,102227.44
2023-02-15T20:57:36.439Z,102220.38
2023-02-15T21:00:07.211Z,102221.13
2023-02-15T21:02:37.044Z,102233.53
2023-02-15T21:05:17.867Z,102232.38
2023-02-15T21:07:48.419Z,102236.72
2023-02-15T21:10:19.876Z,102240.50
2023-02-15T21:12:51.479Z,102235.31
2023-02-15T21:15:34.190Z,102234.47
2023-02-15T21:18:05.698Z,102236.88
2023-02-15T21:20:39.392Z,102240.94
2023-02-15T21:23:09.858Z,102237.66
2023-02-15T21:25:40.292Z,102226.84
2023-02-15T21:28:10.746Z,102229.00
2023-02-15T21:30:40.505Z,102227.38
2023-02-15T21:33:10.309Z,102223.31
2023-02-15T21:35:42.774Z,102231.94
2023-02-15T21:38:17.031Z,102230.56
2023-02-15T21:40:47.749Z,102216.50
2023-02-15T21:43:31.520Z,102218.63
2023-02-15T21:46:13.541Z,102221.06
2023-02-15T21:48:43.327Z,102221.81
2023-02-15T21:51:28.207Z,102220.19
2023-02-15T21:53:58.060Z,102218.56
2023-02-15T21:56:27.862Z,102220.19
2023-02-15T21:58:57.597Z,102220.19
2023-02-15T22:01:29.603Z,102213.16
2023-02-15T22:04:01.911Z,102211.81
2023-02-15T22:06:34.381Z,102203.72
2023-02-15T22:09:04.318Z,102211.00
2023-02-15T22:11:34.161Z,102212.09
2023-02-15T22:14:03.991Z,102203.72
2023-02-15T22:16:34.024Z,102199.06
2023-02-15T22:19:03.920Z,102207.13
2023-02-15T22:21:36.503Z,102222.25
2023-02-15T22:24:06.723Z,102224.34
2023-02-15T22:26:36.653Z,102222.19
2023-02-15T22:29:06.459Z,102224.34
2023-02-15T22:31:36.818Z,102221.06
2023-02-15T22:34:09.340Z,102216.19
2023-02-15T22:36:42.236Z,102214.81
2023-02-15T22:39:12.482Z,102213.97
2023-02-15T22:41:42.281Z,102218.81
2023-02-15T22:44:14.656Z,102211.00
2023-02-15T22:46:44.591Z,102217.72
2023-02-15T22:49:16.351Z,102211.75
2023-02-15T22:51:51.228Z,102215.78
2023-02-15T22:54:22.365Z,102213.34
2023-02-15T22:56:54.134Z,102219.81
2023-02-15T22:59:28.462Z,102213.84
2023-02-15T23:01:59.464Z,102213.03
2023-02-15T23:04:31.634Z,102221.38
2023-02-15T23:07:04.371Z,102221.91
2023-02-15T23:09:34.333Z,102218.63
2023-02-15T23:12:04.157Z,102218.06
2023-02-15T23:14:38.448Z,102217.78
2023-02-15T23:17:08.317Z,102224.50
2023-02-15T23:19:38.165Z,102209.38
2023-02-15T23:22:15.794Z,102206.94
2023-02-15T23:24:46.400Z,102218.53
2023-02-15T23:27:31.633Z,102203.97
2023-02-15T23:30:01.596Z,102205.59
2023-02-15T23:32:31.447Z,102208.84
2023-02-15T23:35:01.471Z,102204.53
2023-02-15T23:37:34.073Z,102203.44
2023-02-15T23:40:16.248Z,102202.63
2023-02-15T23:42:46.039Z,102205.59
2023-02-15T23:45:25.704Z,102213.41
2023-02-15T23:48:08.309Z,102212.81
2023-02-15T23:50:38.165Z,102206.56
2023-02-15T23:53:12.547Z,102208.13
2023-02-15T23:55:46.251Z,102204.88
2023-02-15T23:58:19.920Z,102202.44
